Time;durP1;ratioP1;P1;durP2;ratioP2;P2;SDS_P1;SDS_P2;PMS_P1;PMS_P2;Temp;Humidity;BMP_temperature;BMP_pressure;BME280_temperature;BME280_humidity;BME280_pressure;Samples;Min_cycle;Max_cycle;Signal;HPM_P1;HPM_P2
2021/06/20 00:00:37;;;;;;;8.40;7.50;;;;;;;11.83;100.00;100100.91;3566006;40;20183;-55
2021/06/20 00:03:06;;;;;;;8.82;7.97;;;;;;;11.98;100.00;100104.09;3566242;40;20443;-54
2021/06/20 00:05:36;;;;;;;6.90;5.90;;;;;;;11.87;100.00;100093.63;3566575;40;20430;-56
2021/06/20 00:08:07;;;;;;;9.23;8.32;;;;;;;11.87;100.00;100091.88;3566489;40;20050;-58
2021/06/20 00:10:38;;;;;;;7.80;7.00;;;;;;;11.77;100.00;100091.72;3558773;40;20081;-57
2021/06/20 00:13:07;;;;;;;7.63;6.88;;;;;;;11.79;100.00;100104.69;3557022;40;20089;-58
2021/06/20 00:15:38;;;;;;;6.38;5.78;;;;;;;11.63;99.67;100099.00;3556619;40;20088;-56
2021/06/20 00:18:06;;;;;;;7.63;5.93;;;;;;;11.74;100.00;100101.63;3556603;40;20123;-57
2021/06/20 00:20:40;;;;;;;7.13;6.43;;;;;;;11.83;100.00;100100.09;3556772;40;20429;-55
2021/06/20 00:23:07;;;;;;;;;;;;;;;12.24;100.00;100100.19;3565887;40;20104;-56
2021/06/20 00:25:38;;;;;;;9.50;8.50;;;;;;;12.17;100.00;100095.59;3566581;40;19944;-57
2021/06/20 00:28:07;;;;;;;13.77;11.68;;;;;;;12.35;100.00;100088.84;3566568;40;20046;-56
2021/06/20 00:30:39;;;;;;;11.75;10.52;;;;;;;12.59;100.00;100093.84;3566031;40;20057;-57
2021/06/20 00:33:07;;;;;;;13.38;11.98;;;;;;;13.19;100.00;100087.00;3566404;40;20042;-57
2021/06/20 00:35:34;;;;;;;14.70;13.20;;;;;;;12.89;100.00;100081.75;3566698;40;20080;-56
2021/06/20 00:38:02;;;;;;;15.77;13.70;;;;;;;13.23;100.00;100080.56;3565873;40;20061;-56
2021/06/20 00:40:29;;;;;;;15.82;14.23;;;;;;;13.27;100.00;100083.78;3566478;40;20053;-53
2021/06/20 00:42:57;;;;;;;16.40;13.95;;;;;;;13.57;100.00;100069.78;3566280;40;20098;-56
2021/06/20 00:45:24;;;;;;;15.32;13.77;;;;;;;13.43;100.00;100075.41;3560173;40;20058;-58
2021/06/20 00:47:56;;;;;;;15.57;14.07;;;;;;;13.30;100.00;100078.28;3556226;40;20431;-55
2021/06/20 00:50:26;;;;;;;16.40;14.63;;;;;;;13.50;100.00;100073.91;3556261;40;20089;-57
2021/06/20 00:52:56;;;;;;;15.73;13.25;;;;;;;13.52;100.00;100075.44;3556609;40;20050;-55
2021/06/20 00:55:29;;;;;;;14.02;12.52;;;;;;;13.43;100.00;100076.22;3556417;40;20053;-56
2021/06/20 00:58:01;;;;;;;13.02;11.73;;;;;;;13.19;100.00;100079.13;3556413;40;20058;-56
2021/06/20 01:00:29;;;;;;;12.40;11.20;;;;;;;13.16;100.00;100070.72;3556238;40;20042;-56
2021/06/20 01:02:57;;;;;;;17.95;16.17;;;;;;;13.49;100.00;100073.09;3556071;40;20034;-54
2021/06/20 01:05:24;;;;;;;16.42;14.77;;;;;;;13.86;100.00;100072.47;3556267;40;20062;-57
2021/06/20 01:07:53;;;;;;;14.52;13.10;;;;;;;13.71;100.00;100066.75;3563479;40;20148;-57
2021/06/20 01:10:22;;;;;;;15.98;14.27;;;;;;;13.84;100.00;100067.34;3555755;40;20432;-58
2021/06/20 01:12:49;;;;;;;13.07;11.88;;;;;;;13.61;100.00;100058.03;3556438;40;20085;-57
2021/06/20 01:15:17;;;;;;;13.35;12.05;;;;;;;13.51;100.00;100070.31;3556492;40;20065;-58
2021/06/20 01:17:45;;;;;;;13.00;11.43;;;;;;;13.86;100.00;100075.09;3556296;40;20162;-58
2021/06/20 01:20:20;;;;;;;11.63;10.40;;;;;;;13.70;100.00;100070.38;3556122;40;20046;-58
2021/06/20 01:22:51;;;;;;;12.23;9.90;;;;;;;13.67;99.84;100072.41;3556098;40;20053;-57
2021/06/20 01:25:21;;;;;;;12.73;11.45;;;;;;;13.82;98.77;100069.28;3555906;40;20435;-58
2021/06/20 01:27:58;;;;;;;12.30;11.10;;;;;;;13.91;98.16;100066.78;3556180;40;20046;-57
2021/06/20 01:30:32;;;;;;;12.18;10.98;;;;;;;14.16;99.18;100063.66;3556151;40;20057;-57
2021/06/20 01:33:02;;;;;;;11.80;10.70;;;;;;;14.29;99.68;100058.97;3556257;40;20074;-57
2021/06/20 01:35:30;;;;;;;10.90;9.90;;;;;;;14.33;99.12;100062.94;3555983;40;20054;-57
2021/06/20 01:37:58;;;;;;;11.40;10.30;;;;;;;14.26;98.30;100058.41;3555752;40;20068;-57
2021/06/20 01:40:25;;;;;;;11.18;9.98;;;;;;;14.29;97.73;100063.34;3555945;40;20436;-57
2021/06/20 01:42:53;;;;;;;11.05;9.95;;;;;;;14.47;98.26;100066.13;3556042;40;20085;-58
2021/06/20 01:45:22;;;;;;;11.35;10.25;;;;;;;14.51;96.98;100064.91;3563382;40;20085;-56
2021/06/20 01:47:53;;;;;;;11.75;10.65;;;;;;;14.59;96.44;100065.03;3557396;40;20304;-57
2021/06/20 01:50:20;;;;;;;10.65;9.65;;;;;;;14.81;97.25;100063.88;3557480;40;20046;-57
2021/06/20 01:52:59;;;;;;;11.18;9.93;;;;;;;14.73;95.90;100061.16;3557700;40;20050;-58
2021/06/20 01:55:26;;;;;;;11.25;10.15;;;;;;;14.78;95.61;100061.56;3557571;40;20075;-56
2021/06/20 01:57:53;;;;;;;10.82;9.73;;;;;;;14.96;94.64;100056.38;3557394;40;20139;-58
2021/06/20 02:00:21;;;;;;;11.05;9.95;;;;;;;14.90;94.05;100062.19;3557339;40;20423;-57
2021/06/20 02:02:48;;;;;;;11.52;10.43;;;;;;;15.15;94.08;100050.22;3566966;40;20052;-58
2021/06/20 02:05:15;;;;;;;11.05;9.95;;;;;;;15.07;94.35;100050.94;3566175;40;20052;-58
2021/06/20 02:07:44;;;;;;;11.55;9.30;;;;;;;15.05;94.05;100052.91;3567305;40;20123;-58
2021/06/20 02:10:13;;;;;;;10.93;9.88;;;;;;;15.21;94.14;100047.81;3567354;40;20131;-57
2021/06/20 02:12:41;;;;;;;11.07;9.93;;;;;;;15.31;93.66;100047.78;3567306;40;20072;-57
2021/06/20 02:15:10;;;;;;;9.45;8.55;;;;;;;15.50;93.19;100042.41;3567171;40;20060;-58
2021/06/20 02:17:38;;;;;;;9.80;8.77;;;;;;;15.51;92.73;100037.97;3567061;40;20053;-58
2021/06/20 02:20:11;;;;;;;10.15;9.02;;;;;;;15.62;91.32;100040.41;3564552;40;20677;-57
2021/06/20 02:22:39;;;;;;;;;;;;;;;15.97;92.35;100049.38;3557860;40;20066;-56
2021/06/20 02:25:12;;;;;;;8.57;7.68;;;;;;;15.95;93.03;100053.94;3557232;40;20299;-58
2021/06/20 02:27:42;;;;;;;9.90;8.43;;;;;;;16.00;90.47;100049.91;3557441;40;20053;-58
2021/06/20 02:30:10;;;;;;;9.48;8.50;;;;;;;16.05;88.46;100047.66;3557335;40;20058;-58
2021/06/20 02:32:38;;;;;;;10.38;8.55;;;;;;;16.22;89.81;100045.16;3557324;40;20104;-57
2021/06/20 02:35:08;;;;;;;8.60;7.70;;;;;;;16.28;88.95;100034.78;3567113;40;20139;-58
2021/06/20 02:37:37;;;;;;;10.05;9.05;;;;;;;16.84;87.83;100036.22;3574200;40;20397;-58
2021/06/20 02:40:06;;;;;;;10.00;9.00;;;;;;;16.71;86.95;100041.09;3567049;40;20049;-58
2021/06/20 02:42:34;;;;;;;11.82;9.70;;;;;;;16.81;88.82;100044.47;3556949;40;20135;-56
2021/06/20 02:45:04;;;;;;;10.07;8.85;;;;;;;16.82;86.88;100030.28;3561635;40;20053;-56
2021/06/20 02:47:32;;;;;;;8.98;8.07;;;;;;;17.02;86.56;100036.16;3567058;40;20045;-56
2021/06/20 02:50:00;;;;;;;11.13;9.30;;;;;;;17.23;85.02;100032.28;3566685;40;20053;-58
2021/06/20 02:52:27;;;;;;;10.00;8.65;;;;;;;17.35;87.46;100045.06;3566084;40;20050;-55
2021/06/20 02:54:55;;;;;;;12.65;9.90;;;;;;;17.46;86.33;100051.88;3557023;40;20057;-57
2021/06/20 02:57:25;;;;;;;9.90;8.90;;;;;;;17.65;84.15;100042.84;3561543;40;20049;-57
2021/06/20 02:59:53;;;;;;;14.48;9.13;;;;;;;17.94;81.67;100033.69;3566777;40;20054;-56
2021/06/20 03:02:21;;;;;;;11.25;8.70;;;;;;;17.63;84.37;100032.44;3566856;40;20049;-58
2021/06/20 03:04:53;;;;;;;8.75;7.93;;;;;;;17.65;84.63;100029.63;3566674;40;20426;-58
2021/06/20 03:07:21;;;;;;;9.05;8.25;;;;;;;17.92;83.43;100032.03;3556866;40;20054;-58
2021/06/20 03:09:50;;;;;;;9.90;8.85;;;;;;;18.13;80.95;100022.78;3557256;40;20411;-57
2021/06/20 03:12:18;;;;;;;9.60;8.60;;;;;;;18.19;82.02;100029.28;3557247;40;20049;-56
2021/06/20 03:14:47;;;;;;;11.35;8.88;;;;;;;18.57;77.68;100030.41;3556722;40;20054;-58
2021/06/20 03:17:15;;;;;;;8.63;7.82;;;;;;;18.58;78.94;100047.94;3557174;40;20050;-57
2021/06/20 03:19:47;;;;;;;8.38;7.57;;;;;;;18.49;78.47;100031.22;3557112;40;20053;-58
2021/06/20 03:22:14;;;;;;;10.50;7.47;;;;;;;18.83;76.54;100038.16;3556679;40;20049;-56
2021/06/20 03:24:47;;;;;;;7.70;6.90;;;;;;;18.90;75.29;100029.38;3558785;40;20085;-56
2021/06/20 03:27:17;;;;;;;9.05;7.15;;;;;;;18.92;76.62;100026.56;3559349;40;20053;-58
2021/06/20 03:29:46;;;;;;;8.20;7.40;;;;;;;19.07;75.44;100024.84;3556755;40;20045;-58
2021/06/20 03:32:15;;;;;;;7.68;6.88;;;;;;;19.03;76.20;100022.72;3557032;40;20042;-56
2021/06/20 03:34:43;;;;;;;52.83;33.85;;;;;;;19.10;76.32;100026.34;3556932;40;20061;-54
2021/06/20 03:37:12;;;;;;;25.75;18.52;;;;;;;19.49;71.93;100030.81;3556979;40;20058;-58
2021/06/20 03:39:42;;;;;;;11.38;8.13;;;;;;;19.38;73.29;100024.06;3563932;40;20066;-57
2021/06/20 03:42:10;;;;;;;8.07;7.28;;;;;;;19.51;71.34;100028.81;3556974;40;20057;-57
2021/06/20 03:44:37;;;;;;;10.75;7.93;;;;;;;19.65;73.03;100030.75;3559775;40;20054;-57
2021/06/20 03:47:05;;;;;;;12.23;7.32;;;;;;;19.69;71.40;100022.25;3566471;40;20295;-57
2021/06/20 03:49:32;;;;;;;9.73;7.57;;;;;;;19.70;73.27;100017.78;3566887;40;20075;-58
2021/06/20 03:52:00;;;;;;;9.07;7.57;;;;;;;19.87;70.00;100015.88;3566850;40;20053;-56
2021/06/20 03:54:27;;;;;;;8.48;6.43;;;;;;;19.96;69.66;100028.06;3566690;40;20058;-58
2021/06/20 03:56:55;;;;;;;7.20;6.50;;;;;;;20.07;70.49;100022.34;3565533;40;20060;-57
2021/06/20 03:59:24;;;;;;;9.32;6.85;;;;;;;20.08;69.41;100021.38;3566808;40;20058;-57
2021/06/20 04:01:52;;;;;;;8.43;7.10;;;;;;;20.07;69.96;100024.19;3566664;40;20385;-57
2021/06/20 04:04:21;;;;;;;7.72;6.97;;;;;;;20.13;71.12;100039.38;3566092;40;20053;-57
2021/06/20 04:06:49;;;;;;;6.40;5.80;;;;;;;20.05;71.51;100042.13;3565972;40;20292;-58
2021/06/20 04:09:17;;;;;;;9.98;6.47;;;;;;;20.01;71.67;100046.13;3566551;40;20516;-58
2021/06/20 04:11:47;;;;;;;7.05;6.32;;;;;;;19.89;72.36;100040.38;3566409;40;20067;-61
2021/06/20 04:14:15;;;;;;;30.73;20.42;;;;;;;20.08;69.54;100042.59;3566489;40;20045;-58
2021/06/20 04:16:45;;;;;;;9.55;7.70;;;;;;;20.16;69.21;100037.22;3566235;40;20103;-57
2021/06/20 04:19:12;;;;;;;8.52;5.97;;;;;;;20.16;72.03;100039.06;3566416;40;20049;-58
2021/06/20 04:21:40;;;;;;;6.70;6.03;;;;;;;20.22;71.74;100035.66;3556542;40;20046;-58
2021/06/20 04:24:08;;;;;;;8.38;7.10;;;;;;;20.16;72.38;100041.69;3556552;40;20054;-57
2021/06/20 04:26:36;;;;;;;9.90;7.32;;;;;;;20.31;70.96;100044.41;3555562;40;20319;-58
2021/06/20 04:29:03;;;;;;;8.77;6.70;;;;;;;20.36;69.97;100045.50;3556399;40;20045;-58
2021/06/20 04:31:32;;;;;;;7.82;6.80;;;;;;;20.46;69.79;100035.50;3556036;40;20068;-57
2021/06/20 04:34:00;;;;;;;8.02;7.22;;;;;;;20.48;68.87;100031.84;3556587;40;20061;-58
2021/06/20 04:36:27;;;;;;;10.52;6.65;;;;;;;20.46;68.24;100029.31;3556653;40;20072;-58
2021/06/20 04:38:55;;;;;;;7.10;6.35;;;;;;;20.51;68.70;100024.34;3556168;40;20042;-58
2021/06/20 04:41:23;;;;;;;7.53;6.80;;;;;;;20.69;68.58;100018.69;3555747;40;20103;-57
2021/06/20 04:46:34;;;;;;;7.72;6.93;;;;;;;20.64;68.61;100029.84;3556632;40;20145;-61
2021/06/20 04:49:06;;;;;;;11.23;9.15;;;;;;;20.57;68.58;100020.97;3556245;40;20132;-58
2021/06/20 04:51:39;;;;;;;46.95;39.60;;;;;;;20.64;68.58;100019.22;3557011;40;20415;-57
2021/06/20 04:54:09;;;;;;;10.00;8.98;;;;;;;20.64;68.33;100013.91;3556366;40;20062;-58
2021/06/20 04:56:36;;;;;;;11.52;7.78;;;;;;;20.71;68.27;100014.84;3556229;40;20049;-58
2021/06/20 04:59:05;;;;;;;7.43;6.70;;;;;;;20.71;69.11;100016.69;3555925;40;20057;-57
2021/06/20 05:01:38;;;;;;;7.35;6.38;;;;;;;20.96;67.39;100001.28;3556206;40;20162;-58
2021/06/20 05:04:06;;;;;;;6.95;6.25;;;;;;;20.99;68.89;100000.09;3556777;40;20052;-55
2021/06/20 05:06:34;;;;;;;8.00;5.85;;;;;;;21.14;68.01;100006.22;3555921;40;20058;-58
2021/06/20 05:09:01;;;;;;;7.50;6.60;;;;;;;21.22;66.52;100001.66;3556252;40;20072;-58
2021/06/20 05:11:28;;;;;;;6.90;6.20;;;;;;;21.19;66.91;99995.88;3552736;40;81871;-57
2021/06/20 05:13:57;;;;;;;7.32;6.55;;;;;;;21.31;66.64;100002.38;3546450;40;20049;-58
2021/06/20 05:17:56;;;;;;;6.80;6.07;;;;;;;21.43;65.91;100006.22;3614860;39;20378;-57
2021/06/20 05:20:24;;;;;;;8.30;6.38;;;;;;;21.63;66.10;100006.44;3614926;39;20100;-57
2021/06/20 05:22:52;;;;;;;12.80;6.07;;;;;;;21.57;64.05;100009.84;3614991;39;20121;-57
2021/06/20 05:25:20;;;;;;;8.05;6.00;;;;;;;21.57;64.74;100015.19;3614527;39;20436;-58
2021/06/20 05:27:48;;;;;;;8.35;6.20;;;;;;;21.77;64.20;100014.56;3614767;39;20087;-57
2021/06/20 05:30:15;;;;;;;9.27;6.75;;;;;;;21.87;63.49;100010.56;3614731;39;20048;-55
2021/06/20 05:32:43;;;;;;;8.05;6.65;;;;;;;22.16;61.52;100006.16;3614794;39;20078;-58
2021/06/20 05:35:10;;;;;;;7.75;5.97;;;;;;;22.27;65.66;100005.66;3614507;39;20052;-58
2021/06/20 05:37:37;;;;;;;9.55;5.95;;;;;;;22.20;62.32;100013.59;3614587;39;20051;-58
2021/06/20 05:40:05;;;;;;;6.47;5.85;;;;;;;22.36;61.46;99998.31;3614303;39;20051;-57
2021/06/20 05:42:33;;;;;;;8.52;5.60;;;;;;;22.52;62.44;99991.91;3614802;39;20698;-57
2021/06/20 05:45:01;;;;;;;7.00;6.30;;;;;;;22.64;62.23;99993.81;3614473;39;20560;-57
2021/06/20 05:47:29;;;;;;;6.78;6.10;;;;;;;22.34;62.27;99987.88;3614413;39;20060;-57
2021/06/20 05:49:56;;;;;;;7.88;6.53;;;;;;;21.80;63.04;99987.56;3613838;39;20059;-58
2021/06/20 05:52:24;;;;;;;6.88;5.60;;;;;;;21.59;64.67;99991.03;3613634;39;20051;-58
2021/06/20 05:54:51;;;;;;;8.25;5.78;;;;;;;21.66;62.22;99987.44;3614592;39;20035;-58
2021/06/20 05:57:22;;;;;;;6.30;5.70;;;;;;;21.78;63.85;99986.94;3614412;39;20078;-57
2021/06/20 05:59:49;;;;;;;5.88;5.28;;;;;;;21.98;61.92;99991.44;3614477;39;20066;-58
2021/06/20 06:02:19;;;;;;;6.70;5.65;;;;;;;22.18;63.41;99986.31;3612947;39;20056;-56
2021/06/20 06:04:46;;;;;;;8.88;5.60;;;;;;;22.57;62.03;99989.47;3614204;39;20056;-58
2021/06/20 06:07:13;;;;;;;385.33;240.52;;;;;;;22.71;61.73;99981.38;3614405;39;20083;-57
2021/06/20 06:09:41;;;;;;;165.77;90.95;;;;;;;23.08;62.58;99976.69;3614256;39;20062;-58
2021/06/20 06:12:09;;;;;;;25.83;15.23;;;;;;;23.08;62.04;99992.69;3614528;39;20401;-57
2021/06/20 06:14:36;;;;;;;9.07;6.45;;;;;;;23.36;64.42;99987.25;3614439;39;20055;-57
2021/06/20 06:17:04;;;;;;;7.47;5.70;;;;;;;23.33;61.11;99989.50;3614481;39;20062;-58
2021/06/20 06:19:31;;;;;;;6.57;5.25;;;;;;;23.34;59.14;99983.13;3613211;39;20393;-58
2021/06/20 06:21:58;;;;;;;8.18;5.47;;;;;;;23.63;58.34;99984.66;3614508;39;20043;-58
2021/06/20 06:24:26;;;;;;;6.25;4.40;;;;;;;23.98;60.99;99986.19;3612445;39;20074;-58
2021/06/20 06:26:54;;;;;;;6.70;4.80;;;;;;;23.89;56.76;99984.75;3614079;39;20054;-58
2021/06/20 06:29:21;;;;;;;6.20;5.32;;;;;;;23.92;56.26;99976.31;3607338;39;20130;-58
2021/06/20 06:31:48;;;;;;;6.03;4.50;;;;;;;23.95;55.90;99983.09;3607283;39;20040;-58
2021/06/20 06:34:16;;;;;;;7.55;4.43;;;;;;;24.26;55.50;99977.97;3607534;39;20044;-58
2021/06/20 06:36:45;;;;;;;6.43;5.00;;;;;;;24.32;57.29;99978.19;3607376;39;20074;-57
2021/06/20 06:39:13;;;;;;;6.88;4.38;;;;;;;24.59;56.39;99981.66;3607331;39;20047;-58
2021/06/20 06:41:40;;;;;;;5.93;4.53;;;;;;;24.72;52.56;99969.09;3607251;39;20351;-58
2021/06/20 06:44:07;;;;;;;5.72;4.55;;;;;;;24.68;53.32;99975.88;3607716;39;20100;-58
2021/06/20 06:46:36;;;;;;;9.38;5.15;;;;;;;24.64;52.55;99973.84;3607484;39;20075;-58
2021/06/20 06:49:03;;;;;;;5.70;4.78;;;;;;;24.75;50.78;99967.84;3607373;39;20051;-58
2021/06/20 06:51:31;;;;;;;6.18;4.25;;;;;;;25.00;50.49;99974.16;3607488;39;20040;-58
2021/06/20 06:53:58;;;;;;;5.82;4.60;;;;;;;24.98;55.25;99972.72;3607349;39;20404;-58
2021/06/20 06:56:26;;;;;;;7.68;4.78;;;;;;;24.56;50.97;99976.75;3606538;39;20043;-58
2021/06/20 06:58:54;;;;;;;6.03;4.40;;;;;;;24.59;52.11;99971.78;3604204;39;20083;-58
2021/06/20 07:01:22;;;;;;;5.15;4.38;;;;;;;24.98;50.90;99973.56;3606875;39;20394;-58
2021/06/20 07:03:49;;;;;;;7.13;4.03;;;;;;;24.96;53.02;99967.56;3607273;39;20345;-59
2021/06/20 07:06:16;;;;;;;5.28;4.15;;;;;;;25.41;52.54;99978.34;3607275;39;20047;-60
2021/06/20 07:08:44;;;;;;;6.30;4.07;;;;;;;25.35;52.03;99981.84;3606867;39;20043;-60
2021/06/20 07:11:11;;;;;;;8.75;4.22;;;;;;;25.44;52.90;99977.06;3606223;39;20079;-59
2021/06/20 07:13:39;;;;;;;7.00;4.78;;;;;;;24.97;51.06;99971.91;3606326;39;20320;-60
2021/06/20 07:16:07;;;;;;;5.95;4.38;;;;;;;25.60;52.81;99968.56;3607287;39;20039;-60
2021/06/20 07:18:34;;;;;;;6.82;4.85;;;;;;;25.67;50.60;99982.72;3607355;39;20051;-60
2021/06/20 07:21:02;;;;;;;7.18;4.63;;;;;;;26.02;49.43;99975.09;3607586;39;20408;-60
2021/06/20 07:23:30;;;;;;;5.47;4.50;;;;;;;26.45;52.22;99970.84;3607820;39;20409;-59
2021/06/20 07:25:57;;;;;;;6.30;4.47;;;;;;;25.88;49.43;99976.22;3607055;39;20375;-57
2021/06/20 07:28:25;;;;;;;57.03;37.15;;;;;;;26.18;48.97;99951.47;3607345;39;20455;-60
2021/06/20 07:30:52;;;;;;;10.55;6.80;;;;;;;26.34;52.09;99975.00;3607311;39;20434;-57
2021/06/20 07:33:22;;;;;;;8.63;4.82;;;;;;;26.11;48.78;99972.97;3607149;39;20084;-59
2021/06/20 07:35:53;;;;;;;7.30;4.00;;;;;;;26.62;49.97;99960.34;3606873;39;20043;-58
2021/06/20 07:38:20;;;;;;;7.32;4.07;;;;;;;27.21;49.58;99972.31;3606689;39;20055;-58
2021/06/20 07:40:49;;;;;;;7.28;4.47;;;;;;;27.15;48.80;99967.81;3606119;39;20047;-58
2021/06/20 07:43:16;;;;;;;7.03;4.63;;;;;;;27.08;49.38;99969.75;3606718;39;20409;-58
2021/06/20 07:45:44;;;;;;;6.35;3.88;;;;;;;27.35;47.97;99965.72;3606848;39;20113;-58
2021/06/20 07:48:11;;;;;;;5.10;3.97;;;;;;;26.36;49.13;99950.69;3606646;39;20063;-58
2021/06/20 07:50:38;;;;;;;6.72;4.38;;;;;;;26.05;47.91;99963.09;3606764;39;20050;-58
2021/06/20 07:53:07;;;;;;;11.25;4.78;;;;;;;26.49;47.13;99955.94;3606443;39;20079;-59
2021/06/20 07:55:37;;;;;;;4.35;3.70;;;;;;;26.88;47.83;99943.16;3606610;39;20062;-58
2021/06/20 07:58:04;;;;;;;6.90;3.90;;;;;;;26.63;48.94;99949.38;3605560;39;20054;-58
2021/06/20 08:00:32;;;;;;;5.90;4.22;;;;;;;27.38;51.30;99951.81;3606271;39;20504;-59
2021/06/20 08:02:59;;;;;;;15.43;4.60;;;;;;;26.69;47.30;99953.06;3606315;39;20139;-58
2021/06/20 08:05:27;;;;;;;7.28;4.93;;;;;;;27.03;47.71;99947.06;3606359;39;20064;-58
2021/06/20 08:07:54;;;;;;;6.38;3.85;;;;;;;27.36;47.78;99937.81;3606606;39;20059;-58
2021/06/20 08:10:21;;;;;;;11.88;4.28;;;;;;;27.63;45.15;99942.78;3605140;39;20087;-58
2021/06/20 08:12:49;;;;;;;5.50;4.15;;;;;;;26.92;45.74;99934.41;3606412;39;20047;-58
2021/06/20 08:15:17;;;;;;;6.10;3.85;;;;;;;26.64;44.14;99944.88;3606406;39;20054;-57
2021/06/20 08:17:45;;;;;;;6.95;4.03;;;;;;;27.25;46.77;99943.94;3606330;39;20039;-58
2021/06/20 08:20:15;;;;;;;6.03;4.35;;;;;;;27.64;43.98;99941.75;3606632;39;20051;-58
2021/06/20 08:22:43;;;;;;;4.68;3.80;;;;;;;27.19;45.91;99942.16;3606090;39;20055;-58
2021/06/20 08:25:12;;;;;;;6.93;3.95;;;;;;;26.83;47.12;99943.00;3606517;39;20151;-58
2021/06/20 08:27:40;;;;;;;6.88;4.10;;;;;;;27.63;47.93;99938.25;3606128;39;20070;-58
2021/06/20 08:30:10;;;;;;;6.30;4.43;;;;;;;27.72;44.68;99949.50;3606620;39;20052;-58
2021/06/20 08:32:39;;;;;;;5.60;3.70;;;;;;;27.76;44.60;99939.91;3606482;39;20412;-57
2021/06/20 08:35:07;;;;;;;6.32;4.05;;;;;;;27.60;45.90;99941.38;3606335;39;20132;-59
2021/06/20 08:37:35;;;;;;;5.80;3.80;;;;;;;27.43;45.42;99933.13;3606439;39;20127;-58
2021/06/20 08:40:04;;;;;;;6.47;3.88;;;;;;;28.00;44.31;99938.91;3606090;39;20063;-58
2021/06/20 08:42:32;;;;;;;6.10;4.05;;;;;;;28.48;43.13;99929.81;3606311;39;20055;-58
2021/06/20 08:44:59;;;;;;;8.88;5.03;;;;;;;27.95;42.86;99922.66;3606085;39;20055;-58
2021/06/20 08:47:27;;;;;;;7.05;3.78;;;;;;;28.14;42.60;99930.63;3606332;39;20502;-59
2021/06/20 08:49:56;;;;;;;5.55;3.95;;;;;;;28.53;43.12;99923.72;3606173;39;20143;-59
2021/06/20 08:52:23;;;;;;;9.07;4.50;;;;;;;28.05;43.15;99922.88;3605851;39;20317;-57
2021/06/20 08:55:07;;;;;;;6.95;4.68;;;;;;;28.50;42.99;99924.22;3606172;39;20132;-57
2021/06/20 08:57:37;;;;;;;6.63;4.25;;;;;;;28.45;44.60;99913.34;3606215;39;20059;-58
2021/06/20 09:00:10;;;;;;;8.90;4.43;;;;;;;29.02;41.23;99905.41;3606164;39;20341;-56
2021/06/20 09:02:38;;;;;;;8.35;4.75;;;;;;;28.95;43.55;99915.47;3606192;39;20079;-53
2021/06/20 09:05:08;;;;;;;5.50;4.35;;;;;;;28.52;43.42;99904.06;3605832;39;20059;-53
2021/06/20 09:07:39;;;;;;;7.10;4.43;;;;;;;28.93;42.14;99893.34;3606150;39;20059;-57
2021/06/20 09:10:14;;;;;;;5.97;3.85;;;;;;;29.67;40.55;99894.16;3605096;39;20128;-55
2021/06/20 09:12:52;;;;;;;7.28;3.65;;;;;;;29.14;43.36;99895.38;3606511;39;20048;-54
2021/06/20 09:15:22;;;;;;;6.32;3.63;;;;;;;29.37;43.42;99893.63;3606207;39;20439;-56
2021/06/20 09:17:56;;;;;;;10.73;4.40;;;;;;;28.99;41.72;99889.69;3605670;39;20047;-57
2021/06/20 09:20:44;;;;;;;6.85;3.83;;;;;;;29.22;41.03;99900.38;3606073;39;20352;-56
2021/06/20 09:23:15;;;;;;;5.35;3.80;;;;;;;29.05;38.99;99894.13;3606127;39;20047;-57
2021/06/20 09:25:56;;;;;;;7.07;4.75;;;;;;;26.91;43.37;99908.59;3605865;39;20047;-56
2021/06/20 09:28:34;;;;;;;7.20;3.97;;;;;;;26.82;44.30;99915.31;3605941;39;20055;-55
2021/06/20 09:31:03;;;;;;;7.63;4.55;;;;;;;26.37;46.29;99896.00;3604483;39;20359;-56
2021/06/20 09:33:32;;;;;;;5.00;3.85;;;;;;;26.37;45.64;99893.31;3605993;39;20435;-58
2021/06/20 09:36:00;;;;;;;6.22;4.20;;;;;;;27.62;42.54;99907.03;3605814;39;20055;-57
2021/06/20 09:38:30;;;;;;;6.22;3.78;;;;;;;27.36;42.27;99894.81;3605725;39;20725;-58
2021/06/20 09:41:02;;;;;;;6.47;3.83;;;;;;;26.99;47.88;99904.78;3605900;39;20051;-51
2021/06/20 09:43:31;;;;;;;12.77;4.50;;;;;;;26.03;46.79;99892.81;3604613;39;20082;-58
2021/06/20 09:45:58;;;;;;;6.63;4.18;;;;;;;27.65;43.16;99892.31;3605423;39;20067;-56
2021/06/20 09:48:33;;;;;;;46.78;24.98;;;;;;;28.66;41.45;99887.66;3605794;39;20040;-58
2021/06/20 09:51:21;;;;;;;9.32;5.22;;;;;;;29.01;43.49;99890.31;3605567;39;20048;-53
2021/06/20 09:53:50;;;;;;;6.28;4.43;;;;;;;29.32;40.53;99889.78;3605769;39;20310;-57
2021/06/20 09:56:29;;;;;;;12.55;5.07;;;;;;;29.03;40.13;99894.38;3605656;39;20051;-56
2021/06/20 09:59:04;;;;;;;6.68;4.00;;;;;;;28.95;40.98;99888.53;3605687;39;20093;-56
2021/06/20 10:01:33;;;;;;;9.73;4.47;;;;;;;28.47;41.83;99898.59;3605708;39;20448;-56
2021/06/20 10:04:00;;;;;;;8.20;4.28;;;;;;;29.64;41.85;99889.28;3604708;39;20131;-55
2021/06/20 10:06:29;;;;;;;9.43;3.95;;;;;;;29.52;39.66;99896.59;3607189;39;20071;-58
2021/06/20 10:08:56;;;;;;;9.60;4.38;;;;;;;27.44;41.71;99896.34;3607382;39;20078;-55
2021/06/20 10:11:24;;;;;;;6.00;4.78;;;;;;;27.45;42.91;99889.94;3606994;39;20414;-60
2021/06/20 10:13:51;;;;;;;27.92;20.40;;;;;;;26.88;47.87;99900.19;3607211;39;20091;-59
2021/06/20 10:16:30;;;;;;;5.70;4.70;;;;;;;27.76;42.37;99892.34;3606860;39;20084;-59
2021/06/20 10:19:06;;;;;;;6.88;4.25;;;;;;;28.27;41.11;99887.34;3607271;39;20294;-58
2021/06/20 10:21:38;;;;;;;7.55;4.80;;;;;;;28.53;39.97;99891.44;3607182;39;20084;-58
2021/06/20 10:24:19;;;;;;;9.13;4.63;;;;;;;29.01;39.51;99883.03;3607082;39;20082;-58
2021/06/20 10:26:59;;;;;;;7.03;4.67;;;;;;;29.73;41.50;99870.84;3607234;39;20051;-54
2021/06/20 10:29:30;;;;;;;10.55;4.68;;;;;;;29.21;40.24;99876.38;3606985;39;20353;-57
2021/06/20 10:32:01;;;;;;;4.90;3.75;;;;;;;29.02;40.45;99865.81;3607264;39;20413;-57
2021/06/20 10:34:32;;;;;;;5.28;4.03;;;;;;;29.51;40.56;99865.31;3606990;39;20456;-58
2021/06/20 10:37:06;;;;;;;10.73;5.07;;;;;;;28.68;39.69;99875.63;3606963;39;20062;-59
2021/06/20 10:39:45;;;;;;;6.63;3.97;;;;;;;29.73;37.35;99854.66;3607030;39;20082;-56
2021/06/20 10:42:13;;;;;;;8.80;4.57;;;;;;;29.70;38.28;99855.13;3607265;39;20317;-56
2021/06/20 10:44:42;;;;;;;8.43;4.57;;;;;;;30.18;37.68;99867.19;3607152;39;20069;-55
2021/06/20 10:47:09;;;;;;;7.13;4.30;;;;;;;29.98;39.19;99862.31;3607250;39;20091;-57
2021/06/20 10:49:39;;;;;;;7.57;4.45;;;;;;;29.59;37.86;99846.09;3607042;39;20498;-57
2021/06/20 10:52:16;;;;;;;6.53;4.00;;;;;;;29.79;37.07;99848.28;3605880;39;20047;-57
2021/06/20 10:54:51;;;;;;;6.78;4.07;;;;;;;30.53;38.11;99838.00;3607140;39;20040;-57
2021/06/20 10:57:27;;;;;;;6.53;5.45;;;;;;;29.75;35.43;99850.63;3605953;39;20051;-56
2021/06/20 10:59:58;;;;;;;19.80;14.73;;;;;;;30.66;35.26;99844.88;3604765;39;20436;-57
2021/06/20 11:02:33;;;;;;;7.95;5.20;;;;;;;30.74;33.81;99840.94;3606841;39;20086;-57
2021/06/20 11:05:03;;;;;;;10.95;4.63;;;;;;;30.59;35.27;99842.38;3606935;39;20043;-57
2021/06/20 11:07:31;;;;;;;5.85;4.50;;;;;;;30.90;35.13;99837.34;3607268;39;20060;-56
2021/06/20 11:09:58;;;;;;;8.88;4.50;;;;;;;30.49;35.52;99834.16;3606859;39;20416;-57
2021/06/20 11:12:26;;;;;;;9.10;4.28;;;;;;;30.12;35.10;99828.53;3606478;39;20052;-58
2021/06/20 11:14:54;;;;;;;6.35;4.20;;;;;;;30.73;33.67;99844.72;3606769;39;20294;-58
2021/06/20 11:17:33;;;;;;;6.57;4.20;;;;;;;30.97;36.43;99846.06;3606578;39;20053;-58
2021/06/20 11:20:11;;;;;;;6.55;3.58;;;;;;;31.59;34.87;99840.16;3604954;39;20047;-57
2021/06/20 11:22:38;;;;;;;4.53;3.65;;;;;;;31.05;36.44;99845.63;3606842;39;20486;-57
2021/06/20 11:25:06;;;;;;;6.80;4.15;;;;;;;30.34;33.55;99834.78;3606540;39;20312;-58
2021/06/20 11:27:34;;;;;;;5.57;4.38;;;;;;;30.92;35.77;99834.41;3606733;39;20047;-57
2021/06/20 11:30:03;;;;;;;7.40;4.05;;;;;;;31.29;37.05;99859.66;3606780;39;20060;-57
2021/06/20 11:32:33;;;;;;;6.88;4.03;;;;;;;30.70;37.06;99837.91;3607020;39;20044;-57
2021/06/20 11:35:09;;;;;;;6.60;4.45;;;;;;;30.88;36.25;99839.47;3606751;39;20147;-58
2021/06/20 11:37:43;;;;;;;6.93;4.15;;;;;;;30.95;37.57;99855.47;3606633;39;20460;-58